Glyndon, Minnesota
Current Conditions -  °F | °C
As of 8:31 PM on Thursday 20 Nov 2014 (Local Time) from KJKJ Reporting Station
Clear Clear  
Wind Chill:   Ceiling: Unl
Heat Index: 12°   Visibility: 10mi
Dew Point:   Wind: 9mph
Humidity: 85%   Direction: 190°S
Pressure: 30.14"   Gusts: NA
Location:  46.88°N, 96.58°W
Report Text: KJKJ 210231Z AUTO 19008KT 10SM CLR M11/M13 A3014 RMK AO2
Loading
Personal Weather Stations






























Interactive Weather Map New forecast layout! Learn more

10-Day Weather Forecast

Advertisements
Track Severe Weather on mobile